Terminal Aerodrome Forecast
Issued by NWS

Home | Current Version | Previous Version | Graphics & Text | Print | Product List | Glossary On
Versions: 1 2 3 4 5 6 7 8 9 10 11 12 13 14 15
000
FTUS43 KTOP 271135
TAFFOE
TAF
KFOE 271135Z 2712/2812 12004KT 6SM -TSRA SCT060CB OVC120
      TEMPO 2712/2713 VRB15G25KT 4SM TSRA BR BKN035CB
     FM271400 12008KT P6SM VCTS SCT025 BKN035CB
     FM272300 35008KT P6SM BKN040
     FM280200 34009KT P6SM BKN025
     FM280900 32008KT P6SM SCT035=

USA.gov is the U.S. government's official web portal to all federal, state and local government web resources and services.